createdAt,value
2018-08-03T00:01:46.928Z,92.60
2018-08-03T00:04:15.288Z,92.60
2018-08-03T00:06:43.663Z,92.60
2018-08-03T00:09:12.054Z,92.50
2018-08-03T00:11:40.406Z,92.50
2018-08-03T00:14:08.807Z,92.60
2018-08-03T00:16:37.147Z,92.70
2018-08-03T00:21:33.615Z,92.50
2018-08-03T00:24:02.012Z,92.60
2018-08-03T00:26:30.385Z,92.70
2018-08-03T00:28:58.782Z,92.90
2018-08-03T00:31:27.128Z,93.30
2018-08-03T00:33:55.491Z,93.70
2018-08-03T00:36:23.882Z,93.90
2018-08-03T00:38:52.278Z,93.90
2018-08-03T00:41:20.659Z,94.00
2018-08-03T00:43:49.024Z,94.10
2018-08-03T00:46:17.382Z,94.10
2018-08-03T00:48:45.796Z,94.10
2018-08-03T00:51:14.219Z,94.30
2018-08-03T00:53:42.633Z,94.40
2018-08-03T00:56:10.974Z,94.50
2018-08-03T00:58:39.343Z,94.70
2018-08-03T01:01:07.744Z,94.60
2018-08-03T01:03:36.119Z,94.60
2018-08-03T01:06:04.484Z,94.80
2018-08-03T01:08:32.851Z,94.80
2018-08-03T01:11:01.168Z,94.80
2018-08-03T01:13:29.532Z,94.90
2018-08-03T01:15:57.872Z,95.00
2018-08-03T01:18:26.259Z,95.20
2018-08-03T01:20:54.679Z,95.30
2018-08-03T01:23:23.036Z,95.50
2018-08-03T01:25:51.467Z,95.80
2018-08-03T01:28:19.887Z,96.00
2018-08-03T01:30:48.208Z,96.10
2018-08-03T01:33:16.594Z,96.20
2018-08-03T01:38:12.991Z,96.90
2018-08-03T01:40:41.308Z,97.10
2018-08-03T01:43:09.662Z,97.10
2018-08-03T01:45:37.985Z,97.10
2018-08-03T01:48:06.356Z,97.10
2018-08-03T01:50:34.669Z,97.00
2018-08-03T01:53:03.948Z,96.80
2018-08-03T01:55:32.269Z,96.60
2018-08-03T01:58:00.617Z,96.40
2018-08-03T02:00:29.021Z,96.40
2018-08-03T02:02:57.367Z,96.30
2018-08-03T02:05:25.752Z,96.30
2018-08-03T02:07:54.103Z,96.40
2018-08-03T02:10:22.443Z,96.50
2018-08-03T02:12:50.852Z,96.50
2018-08-03T02:17:47.275Z,97.10
2018-08-03T02:20:15.632Z,97.40
2018-08-03T02:22:43.985Z,97.40
2018-08-03T02:25:12.308Z,97.30
2018-08-03T02:27:40.696Z,97.30
2018-08-03T02:30:09.060Z,97.50
2018-08-03T02:32:37.440Z,97.60
2018-08-03T02:35:05.881Z,97.70
2018-08-03T02:37:34.260Z,97.80
2018-08-03T02:40:02.596Z,97.70
2018-08-03T02:42:30.969Z,97.90
2018-08-03T02:44:59.328Z,98.30
2018-08-03T02:47:27.685Z,98.60
2018-08-03T02:49:56.031Z,98.70
2018-08-03T02:54:52.963Z,98.80
2018-08-03T02:57:21.323Z,98.80
2018-08-03T02:59:49.657Z,98.60
2018-08-03T03:02:18.037Z,98.40
2018-08-03T03:04:46.403Z,98.30
2018-08-03T03:09:42.860Z,98.20
2018-08-03T03:12:11.300Z,98.50
2018-08-03T03:14:39.663Z,98.80
2018-08-03T03:17:08.031Z,99.00
2018-08-03T03:19:36.559Z,98.90
2018-08-03T03:22:04.944Z,98.80
2018-08-03T03:24:33.408Z,99.90
2018-08-03T03:27:01.744Z,99.90
2018-08-03T03:29:30.108Z,99.90
2018-08-03T03:31:58.440Z,99.70
2018-08-03T03:34:26.812Z,99.40
2018-08-03T03:36:55.150Z,99.30
2018-08-03T03:39:23.511Z,99.20
2018-08-03T03:44:19.932Z,99.30
2018-08-03T03:46:48.280Z,99.40
2018-08-03T03:49:16.659Z,99.40
2018-08-03T03:51:44.976Z,99.40
2018-08-03T03:54:13.344Z,99.40
2018-08-03T03:56:41.694Z,99.40
2018-08-03T03:59:10.074Z,99.60
2018-08-03T04:01:38.443Z,99.50
2018-08-03T04:04:07.021Z,99.40
2018-08-03T04:06:35.349Z,99.40
2018-08-03T04:09:05.819Z,99.40
2018-08-03T04:11:34.160Z,99.50
2018-08-03T04:14:02.552Z,99.70
2018-08-03T04:18:58.981Z,99.90
2018-08-03T04:21:27.331Z,99.90
2018-08-03T04:23:55.692Z,99.90
2018-08-03T04:26:24.020Z,99.90
2018-08-03T04:28:52.399Z,99.90
2018-08-03T04:31:20.732Z,99.90
2018-08-03T04:33:49.112Z,99.90
2018-08-03T04:36:17.451Z,99.90
2018-08-03T04:41:13.856Z,99.90
2018-08-03T04:43:42.237Z,99.90
2018-08-03T04:46:10.591Z,99.90
2018-08-03T04:48:39.015Z,99.90
2018-08-03T04:51:07.359Z,99.90
2018-08-03T04:53:35.768Z,99.90
2018-08-03T04:56:04.147Z,99.90
2018-08-03T04:58:32.488Z,99.90
2018-08-03T05:01:00.944Z,99.90
2018-08-03T05:03:29.279Z,99.90
2018-08-03T05:05:57.682Z,99.90
2018-08-03T05:08:26.048Z,99.90
2018-08-03T05:10:54.404Z,99.90
2018-08-03T05:13:22.776Z,99.90
2018-08-03T05:15:51.144Z,99.80
2018-08-03T05:18:19.508Z,99.80
2018-08-03T05:20:47.885Z,99.80
2018-08-03T05:23:16.265Z,99.60
2018-08-03T05:25:44.633Z,99.60
2018-08-03T05:28:13.048Z,99.30
2018-08-03T05:30:41.481Z,99.10
2018-08-03T05:33:09.879Z,98.90
2018-08-03T05:35:38.233Z,98.90
2018-08-03T05:38:06.635Z,98.70
2018-08-03T05:40:35.019Z,98.90
2018-08-03T05:43:03.399Z,98.90
2018-08-03T05:45:31.821Z,98.40
2018-08-03T05:48:00.195Z,98.10
2018-08-03T05:50:28.522Z,97.90
2018-08-03T05:52:56.907Z,97.60
2018-08-03T05:55:25.255Z,97.00
2018-08-03T05:57:53.636Z,96.60
2018-08-03T06:00:21.990Z,96.10
2018-08-03T06:02:50.536Z,95.80
2018-08-03T06:05:18.900Z,96.00
2018-08-03T06:07:47.267Z,95.50
2018-08-03T06:12:43.708Z,94.50
2018-08-03T06:15:12.426Z,94.10
2018-08-03T06:17:40.959Z,93.60
2018-08-03T06:20:11.204Z,93.10
2018-08-03T06:22:39.684Z,92.90
2018-08-03T06:30:06.084Z,92.70
2018-08-03T06:32:34.611Z,92.60
2018-08-03T06:35:02.992Z,91.60
2018-08-03T06:37:31.340Z,91.40
2018-08-03T06:39:59.716Z,90.40
2018-08-03T06:42:28.113Z,90.30
2018-08-03T06:44:56.452Z,89.90
2018-08-03T06:47:24.861Z,89.00
2018-08-03T06:49:53.184Z,89.40
2018-08-03T06:52:21.715Z,89.00
2018-08-03T06:54:50.065Z,87.90
2018-08-03T06:57:18.492Z,87.10
2018-08-03T06:59:46.878Z,88.80
2018-08-03T07:02:15.243Z,88.80
2018-08-03T07:04:43.576Z,87.40
2018-08-03T07:07:11.956Z,83.80
2018-08-03T07:09:40.325Z,81.60
2018-08-03T07:12:08.719Z,81.30
2018-08-03T07:14:37.110Z,81.30
2018-08-03T07:17:05.485Z,80.40
2018-08-03T07:19:33.833Z,80.00
2018-08-03T07:22:02.235Z,79.80
2018-08-03T07:26:58.688Z,79.80
2018-08-03T07:29:27.069Z,79.60
2018-08-03T07:31:55.412Z,80.20
2018-08-03T07:34:23.793Z,79.60
2018-08-03T07:36:52.166Z,78.60
2018-08-03T07:39:20.535Z,80.00
2018-08-03T07:41:48.895Z,78.60
2018-08-03T07:44:17.309Z,78.80
2018-08-03T07:46:45.953Z,78.10
2018-08-03T07:49:14.413Z,78.20
2018-08-03T07:51:42.781Z,76.90
2018-08-03T07:54:11.158Z,77.10
2018-08-03T07:59:07.547Z,75.40
2018-08-03T08:01:36.006Z,76.10
2018-08-03T08:04:04.336Z,76.20
2018-08-03T08:06:32.688Z,74.50
2018-08-03T08:09:01.040Z,73.50
2018-08-03T08:11:29.444Z,73.00
2018-08-03T08:13:57.796Z,74.10
2018-08-03T08:16:26.151Z,73.70
2018-08-03T08:18:54.523Z,73.70
2018-08-03T08:21:22.908Z,72.00
2018-08-03T08:28:47.399Z,68.30
2018-08-03T08:31:15.767Z,68.80
2018-08-03T08:33:44.100Z,66.90
2018-08-03T08:38:40.543Z,67.50
2018-08-03T08:41:08.894Z,67.20
2018-08-03T08:43:37.336Z,67.50
2018-08-03T08:46:05.736Z,66.80
2018-08-03T08:48:34.109Z,66.70
2018-08-03T08:51:02.443Z,65.60
2018-08-03T08:53:30.807Z,63.60
2018-08-03T08:55:59.129Z,64.20
2018-08-03T08:58:27.488Z,65.30
2018-08-03T09:00:55.883Z,65.10
2018-08-03T09:03:24.211Z,64.90
2018-08-03T09:05:52.555Z,64.60
2018-08-03T09:08:21.012Z,62.90
2018-08-03T09:10:49.380Z,62.60
2018-08-03T09:15:45.846Z,59.80
2018-08-03T09:18:14.173Z,59.70
2018-08-03T09:20:42.528Z,60.00
2018-08-03T09:23:10.851Z,60.40
2018-08-03T09:25:39.255Z,60.00
2018-08-03T09:28:07.904Z,58.50
2018-08-03T09:30:36.235Z,57.50
2018-08-03T09:33:04.599Z,56.70
2018-08-03T09:35:32.924Z,57.10
2018-08-03T09:38:01.285Z,58.10
2018-08-03T09:40:29.711Z,57.90
2018-08-03T09:42:58.123Z,55.60
2018-08-03T09:45:26.487Z,56.50
2018-08-03T09:47:54.855Z,55.50
2018-08-03T09:50:23.239Z,55.50
2018-08-03T09:52:51.619Z,55.30
2018-08-03T09:57:48.146Z,56.50
2018-08-03T10:00:17.188Z,56.20
2018-08-03T10:02:46.244Z,55.80
2018-08-03T10:05:14.586Z,55.90
2018-08-03T10:07:42.912Z,55.70
2018-08-03T10:12:39.333Z,56.40
2018-08-03T10:15:07.745Z,55.20
2018-08-03T10:20:07.344Z,56.30
2018-08-03T10:22:35.937Z,55.40
2018-08-03T10:25:04.293Z,55.70
2018-08-03T10:27:32.664Z,55.80
2018-08-03T10:30:01.029Z,55.90
2018-08-03T10:32:29.440Z,55.30
2018-08-03T10:34:57.835Z,56.00
2018-08-03T10:37:26.187Z,55.60
2018-08-03T10:39:54.562Z,55.80
2018-08-03T10:42:22.917Z,56.20
2018-08-03T10:44:51.288Z,55.50
2018-08-03T10:47:19.635Z,55.10
2018-08-03T10:49:47.960Z,55.50
2018-08-03T10:52:16.315Z,55.40
2018-08-03T10:54:44.671Z,55.10
2018-08-03T10:57:13.057Z,55.60
2018-08-03T10:59:41.569Z,55.10
2018-08-03T11:02:10.368Z,55.00
2018-08-03T11:04:39.297Z,55.20
2018-08-03T11:07:07.670Z,55.00
2018-08-03T11:09:36.039Z,55.60
2018-08-03T11:12:04.867Z,54.50
2018-08-03T11:14:33.252Z,54.70
2018-08-03T11:19:30.057Z,54.70
2018-08-03T11:21:58.492Z,53.30
2018-08-03T11:26:54.927Z,54.20
2018-08-03T11:29:23.284Z,53.70
2018-08-03T11:31:51.648Z,52.70
2018-08-03T11:34:19.975Z,52.00
2018-08-03T11:36:48.316Z,51.10
2018-08-03T11:39:16.631Z,50.70
2018-08-03T11:41:45.005Z,51.90
2018-08-03T11:44:13.359Z,52.00
2018-08-03T11:46:41.715Z,51.50
2018-08-03T11:49:10.043Z,50.80
2018-08-03T11:54:06.659Z,49.60
2018-08-03T11:56:35.008Z,49.60
2018-08-03T11:59:03.352Z,50.30
2018-08-03T12:01:31.715Z,50.30
2018-08-03T12:04:00.040Z,49.90
2018-08-03T12:06:28.459Z,50.00
2018-08-03T12:08:56.776Z,48.40
2018-08-03T12:11:25.195Z,49.80
2018-08-03T12:13:53.519Z,48.30
2018-08-03T12:16:21.897Z,48.40
2018-08-03T12:18:50.255Z,47.90
2018-08-03T12:21:18.621Z,48.10
2018-08-03T12:23:47.017Z,48.50
2018-08-03T12:26:15.466Z,48.50
2018-08-03T12:28:43.951Z,48.40
2018-08-03T12:31:12.321Z,47.70
2018-08-03T12:33:40.677Z,46.00
2018-08-03T12:41:05.139Z,47.10
2018-08-03T12:43:33.498Z,47.80
2018-08-03T12:46:02.395Z,46.20
2018-08-03T12:48:30.724Z,46.90
2018-08-03T12:50:59.091Z,47.30
2018-08-03T12:53:27.421Z,46.30
2018-08-03T12:55:55.802Z,45.50
2018-08-03T12:58:24.140Z,46.00
2018-08-03T13:00:52.464Z,44.20
2018-08-03T13:03:20.881Z,43.90
2018-08-03T13:05:49.212Z,45.00
2018-08-03T13:08:17.635Z,44.30
2018-08-03T13:10:46.107Z,44.40
2018-08-03T13:13:14.471Z,44.20
2018-08-03T13:15:42.828Z,44.40
2018-08-03T13:18:11.172Z,43.90
2018-08-03T13:20:39.550Z,43.60
2018-08-03T13:23:07.893Z,44.20
2018-08-03T13:25:36.232Z,43.50
2018-08-03T13:28:04.625Z,44.10
2018-08-03T13:30:32.948Z,44.90
2018-08-03T13:33:01.301Z,45.60
2018-08-03T13:35:29.630Z,45.50
2018-08-03T13:37:58.024Z,45.90
2018-08-03T13:40:26.367Z,43.20
2018-08-03T13:42:54.771Z,42.90
2018-08-03T13:50:19.413Z,43.50
2018-08-03T13:52:47.859Z,44.40
2018-08-03T13:55:16.221Z,43.90
2018-08-03T13:57:44.586Z,44.60
2018-08-03T14:00:13.791Z,42.70
2018-08-03T14:02:42.389Z,43.00
2018-08-03T14:05:11.219Z,43.20
2018-08-03T14:07:39.597Z,42.90
2018-08-03T14:10:08.599Z,42.10
2018-08-03T14:12:36.943Z,41.50
2018-08-03T14:15:06.140Z,41.30
2018-08-03T14:17:34.579Z,41.50
2018-08-03T14:20:02.952Z,41.40
2018-08-03T14:22:31.309Z,41.10
2018-08-03T14:27:27.772Z,41.10
2018-08-03T14:29:56.127Z,41.10
2018-08-03T14:34:52.644Z,40.50
2018-08-03T14:37:21.006Z,40.80
2018-08-03T14:39:49.374Z,41.00
2018-08-03T14:42:17.732Z,41.00
2018-08-03T14:44:46.132Z,41.40
2018-08-03T14:47:14.623Z,41.30
2018-08-03T14:49:42.963Z,41.50
2018-08-03T14:54:39.531Z,40.00
2018-08-03T14:57:15.907Z,39.90
2018-08-03T14:59:44.285Z,40.60
2018-08-03T15:02:12.674Z,40.10
2018-08-03T15:04:41.012Z,40.10
2018-08-03T15:07:09.377Z,40.80
2018-08-03T15:09:37.747Z,40.70
2018-08-03T15:12:06.079Z,42.10
2018-08-03T15:14:34.467Z,40.40
2018-08-03T15:17:02.905Z,39.90
2018-08-03T15:19:31.330Z,40.30
2018-08-03T15:21:59.699Z,40.20
2018-08-03T15:24:28.078Z,40.30
2018-08-03T15:27:00.304Z,40.50
2018-08-03T15:29:28.688Z,40.90
2018-08-03T15:31:57.072Z,40.50
2018-08-03T15:34:25.493Z,40.60
2018-08-03T15:36:53.858Z,39.40
2018-08-03T15:39:22.196Z,39.50
2018-08-03T15:41:50.553Z,39.70
2018-08-03T15:44:18.927Z,39.80
2018-08-03T15:46:47.298Z,38.70
2018-08-03T15:49:15.643Z,38.10
2018-08-03T15:54:12.207Z,38.90
2018-08-03T15:56:40.588Z,39.60
2018-08-03T15:59:08.964Z,39.80
2018-08-03T16:01:37.347Z,39.80
2018-08-03T16:04:05.993Z,40.10
2018-08-03T16:06:34.386Z,40.60
2018-08-03T16:09:02.836Z,40.90
2018-08-03T16:11:31.227Z,41.10
2018-08-03T16:13:59.607Z,41.10
2018-08-03T16:16:27.959Z,40.40
2018-08-03T16:18:56.371Z,40.60
2018-08-03T16:21:24.665Z,40.80
2018-08-03T16:23:53.079Z,40.90
2018-08-03T16:26:21.419Z,41.10
2018-08-03T16:28:49.828Z,41.30
2018-08-03T16:31:18.539Z,40.80
2018-08-03T16:33:46.888Z,41.20
2018-08-03T16:36:15.280Z,41.30
2018-08-03T16:38:43.649Z,41.20
2018-08-03T16:41:11.999Z,41.50
2018-08-03T16:48:36.851Z,41.10
2018-08-03T16:53:33.300Z,41.30
2018-08-03T16:56:01.669Z,41.40
2018-08-03T17:00:58.104Z,41.10
2018-08-03T17:03:26.471Z,40.70
2018-08-03T17:06:10.958Z,40.20
2018-08-03T17:11:09.458Z,40.00
2018-08-03T17:13:37.910Z,40.30
2018-08-03T17:16:07.013Z,40.20
2018-08-03T17:18:38.283Z,40.40
2018-08-03T17:21:06.855Z,39.80
2018-08-03T17:23:35.276Z,40.70
2018-08-03T17:26:03.911Z,39.80
2018-08-03T17:28:34.147Z,39.50
2018-08-03T17:31:02.667Z,39.40
2018-08-03T17:33:31.109Z,39.50
2018-08-03T17:36:01.706Z,40.20
2018-08-03T17:40:59.946Z,40.30
2018-08-03T17:45:56.636Z,39.60
2018-08-03T17:48:26.253Z,39.10
2018-08-03T17:50:59.529Z,39.10
2018-08-03T17:53:27.920Z,39.30
2018-08-03T17:55:56.403Z,40.00
2018-08-03T17:58:24.823Z,40.40
2018-08-03T18:00:53.261Z,39.80
2018-08-03T18:03:22.071Z,40.30
2018-08-03T18:05:50.555Z,40.20
2018-08-03T18:08:18.927Z,40.60
2018-08-03T18:10:47.579Z,40.80
2018-08-03T18:13:16.204Z,40.90
2018-08-03T18:15:44.541Z,40.20
2018-08-03T18:18:13.013Z,40.90
2018-08-03T18:20:41.856Z,41.70
2018-08-03T18:23:10.523Z,40.60
2018-08-03T18:25:39.364Z,41.00
2018-08-03T18:28:08.355Z,41.00
2018-08-03T18:30:36.775Z,41.50
2018-08-03T18:33:05.492Z,41.80
2018-08-03T18:35:33.967Z,42.50
2018-08-03T18:38:02.307Z,43.60
2018-08-03T18:40:30.821Z,44.80
2018-08-03T18:45:27.234Z,46.30
2018-08-03T18:50:23.756Z,46.90
2018-08-03T18:52:52.287Z,47.00
2018-08-03T18:55:20.940Z,47.10
2018-08-03T18:57:49.308Z,48.30
2018-08-03T19:00:17.696Z,49.00
2018-08-03T19:02:46.063Z,49.60
2018-08-03T19:05:14.400Z,50.20
2018-08-03T19:07:42.769Z,50.50
2018-08-03T19:10:18.284Z,50.70
2018-08-03T19:15:15.801Z,51.00
2018-08-03T19:17:44.157Z,51.60
2018-08-03T19:20:12.544Z,52.00
2018-08-03T19:22:40.932Z,52.50
2018-08-03T19:25:09.441Z,52.90
2018-08-03T19:27:37.879Z,53.20
2018-08-03T19:30:06.564Z,53.30
2018-08-03T19:32:34.997Z,53.60
2018-08-03T19:35:03.467Z,53.70
2018-08-03T19:37:31.923Z,54.00
2018-08-03T19:40:00.543Z,54.30
2018-08-03T19:42:28.876Z,54.80
2018-08-03T19:44:57.251Z,55.50
2018-08-03T19:47:25.657Z,56.00
2018-08-03T19:49:54.033Z,56.40
2018-08-03T19:52:22.471Z,56.90
2018-08-03T19:57:18.928Z,57.50
2018-08-03T19:59:47.298Z,57.50
2018-08-03T20:02:15.663Z,57.90
2018-08-03T20:04:44.020Z,58.40
2018-08-03T20:07:12.365Z,58.50
2018-08-03T20:09:40.843Z,58.50
2018-08-03T20:12:09.384Z,58.40
2018-08-03T20:17:05.976Z,58.70
2018-08-03T20:19:34.341Z,58.60
2018-08-03T20:24:30.886Z,58.80
2018-08-03T20:29:27.343Z,58.80
2018-08-03T20:31:55.748Z,58.80
2018-08-03T20:34:24.162Z,59.50
2018-08-03T20:36:52.509Z,59.80
2018-08-03T20:39:20.911Z,59.80
2018-08-03T20:41:49.272Z,59.70
2018-08-03T20:44:17.680Z,59.10
2018-08-03T20:46:46.055Z,58.90
2018-08-03T20:49:14.436Z,58.80
2018-08-03T20:51:42.861Z,59.20
2018-08-03T20:54:11.317Z,59.70
2018-08-03T20:56:39.731Z,59.80
2018-08-03T20:59:08.127Z,60.30
2018-08-03T21:01:36.611Z,60.60
2018-08-03T21:04:05.069Z,61.20
2018-08-03T21:06:33.519Z,61.60
2018-08-03T21:09:01.970Z,61.90
2018-08-03T21:11:30.324Z,62.40
2018-08-03T21:13:58.757Z,62.80
2018-08-03T21:16:27.149Z,62.50
2018-08-03T21:18:55.508Z,62.40
2018-08-03T21:21:23.991Z,62.30
2018-08-03T21:23:52.397Z,62.70
2018-08-03T21:26:20.768Z,62.80
2018-08-03T21:28:49.200Z,63.10
2018-08-03T21:31:17.547Z,63.50
2018-08-03T21:33:46.181Z,63.50
2018-08-03T21:36:14.889Z,64.00
2018-08-03T21:38:43.259Z,63.00
2018-08-03T21:41:11.658Z,62.60
2018-08-03T21:43:40.103Z,62.30
2018-08-03T21:46:08.624Z,62.60
2018-08-03T21:48:37.063Z,64.00
2018-08-03T21:51:05.424Z,63.70
2018-08-03T21:53:33.835Z,63.60
2018-08-03T21:56:02.291Z,63.70
2018-08-03T21:58:30.804Z,63.80
2018-08-03T22:00:59.148Z,64.20
2018-08-03T22:03:27.547Z,64.60
2018-08-03T22:05:55.903Z,65.30
2018-08-03T22:08:24.273Z,66.00
2018-08-03T22:10:52.736Z,66.40
2018-08-03T22:13:21.196Z,67.00
2018-08-03T22:15:49.566Z,67.30
2018-08-03T22:18:17.896Z,67.40
2018-08-03T22:20:46.423Z,67.90
2018-08-03T22:23:14.796Z,69.00
2018-08-03T22:25:43.187Z,68.90
2018-08-03T22:28:11.567Z,69.60
2018-08-03T22:30:40.008Z,70.70
2018-08-03T22:33:08.404Z,71.50
2018-08-03T22:35:36.727Z,71.30
2018-08-03T22:38:05.140Z,70.90
2018-08-03T22:40:33.473Z,70.80
2018-08-03T22:45:30.067Z,70.80
2018-08-03T22:47:58.451Z,70.20
2018-08-03T22:50:26.781Z,70.20
2018-08-03T22:52:55.151Z,69.80
2018-08-03T22:55:23.503Z,69.70
2018-08-03T22:57:51.888Z,69.60
2018-08-03T23:00:20.309Z,70.10
2018-08-03T23:05:16.767Z,70.60
2018-08-03T23:07:45.178Z,71.20
2018-08-03T23:10:13.547Z,71.40
2018-08-03T23:12:41.991Z,72.20
2018-08-03T23:15:10.372Z,72.70
2018-08-03T23:17:38.727Z,72.90
2018-08-03T23:20:07.525Z,73.40
2018-08-03T23:22:35.959Z,73.20
2018-08-03T23:25:04.310Z,73.10
2018-08-03T23:27:32.718Z,73.60
2018-08-03T23:30:01.052Z,74.40
2018-08-03T23:32:29.422Z,75.00
2018-08-03T23:34:57.752Z,75.20
2018-08-03T23:37:26.110Z,75.30
2018-08-03T23:39:54.797Z,75.70
2018-08-03T23:42:23.160Z,75.90
2018-08-03T23:49:47.693Z,76.40
2018-08-03T23:52:16.163Z,77.70
2018-08-03T23:54:44.520Z,79.20
2018-08-03T23:57:12.895Z,79.40
2018-08-03T23:59:41.379Z,80.00
